Time;durP1;ratioP1;P1;durP2;ratioP2;P2;SDS_P1;SDS_P2;PMS_P1;PMS_P2;Temp;Humidity;BMP_temperature;BMP_pressure;BME280_temperature;BME280_humidity;BME280_pressure;Samples;Min_cycle;Max_cycle;Signal;HPM_P1;HPM_P2
2022/07/19 00:00:26;;;;;;;12.88;7.55;;;;;;;;;;6202969;23;20013;-80
2022/07/19 00:02:52;;;;;;;12.45;7.97;;;;;;;;;;6205132;23;20036;-79
2022/07/19 00:05:18;;;;;;;13.93;7.65;;;;;;;;;;6203471;23;20314;-79
2022/07/19 00:07:47;;;;;;;18.17;7.97;;;;;;;;;;6204203;23;20441;-79
2022/07/19 00:10:15;;;;;;;21.23;8.55;;;;;;;;;;6203509;23;20019;-79
2022/07/19 00:12:41;;;;;;;14.98;8.38;;;;;;;;;;6203496;23;20027;-79
2022/07/19 00:15:08;;;;;;;13.70;8.32;;;;;;;;;;6233382;23;20028;-79
2022/07/19 00:17:35;;;;;;;15.57;8.18;;;;;;;;;;6233907;23;20347;-79
2022/07/19 00:20:01;;;;;;;15.60;9.23;;;;;;;;;;6234182;23;20020;-79
2022/07/19 00:22:27;;;;;;;9.00;8.10;;;;;;;;;;6232983;23;20383;-80
2022/07/19 00:24:56;;;;;;;15.48;8.30;;;;;;;;;;6233400;23;20306;-80
2022/07/19 00:27:25;;;;;;;14.65;9.45;;;;;;;;;;6206682;23;20099;-81
2022/07/19 00:29:54;;;;;;;16.42;8.63;;;;;;;;;;6206189;23;20027;-81
2022/07/19 00:32:20;;;;;;;12.82;8.40;;;;;;;;;;6233402;23;20020;-80
2022/07/19 00:34:46;;;;;;;20.52;9.27;;;;;;;;;;6233070;23;20012;-80
2022/07/19 00:37:12;;;;;;;13.38;9.23;;;;;;;;;;6234133;23;20127;-80
2022/07/19 00:39:38;;;;;;;16.42;9.82;;;;;;;;;;6232139;23;20015;-79
2022/07/19 00:42:04;;;;;;;12.63;8.32;;;;;;;;;;6234229;23;20012;-81
2022/07/19 00:44:31;;;;;;;15.68;8.60;;;;;;;;;;6233130;23;20024;-80
2022/07/19 00:46:57;;;;;;;14.70;8.90;;;;;;;;;;6206604;23;20020;-80
2022/07/19 00:49:23;;;;;;;15.43;8.52;;;;;;;;;;6232098;23;20031;-80
2022/07/19 00:51:52;;;;;;;12.52;8.05;;;;;;;;;;6233830;23;20032;-80
2022/07/19 00:54:19;;;;;;;14.88;8.63;;;;;;;;;;6207915;23;20028;-81
2022/07/19 00:56:48;;;;;;;14.95;8.77;;;;;;;;;;6206304;23;20027;-80
2022/07/19 00:59:14;;;;;;;12.15;8.32;;;;;;;;;;6207218;23;20027;-79
2022/07/19 01:01:41;;;;;;;19.33;9.18;;;;;;;;;;6232661;23;20023;-80
2022/07/19 01:04:07;;;;;;;15.05;8.30;;;;;;;;;;6234185;23;20059;-80
2022/07/19 01:06:33;;;;;;;10.60;8.18;;;;;;;;;;6231956;23;20020;-82
2022/07/19 01:08:59;;;;;;;14.10;8.20;;;;;;;;;;6233907;23;20016;-79
2022/07/19 01:11:25;;;;;;;15.65;7.95;;;;;;;;;;6232351;23;20095;-81
2022/07/19 01:13:52;;;;;;;12.48;8.35;;;;;;;;;;6232087;23;20511;-80
2022/07/19 01:16:18;;;;;;;17.25;7.88;;;;;;;;;;6235479;23;20059;-79
2022/07/19 01:18:44;;;;;;;18.75;8.80;;;;;;;;;;6233927;23;20020;-80
2022/07/19 01:21:20;;;;;;;14.43;8.77;;;;;;;;;;6231612;23;20093;-79
2022/07/19 01:23:47;;;;;;;17.17;8.35;;;;;;;;;;6233045;23;20024;-80
2022/07/19 01:26:13;;;;;;;14.70;8.48;;;;;;;;;;6206135;23;20024;-81
2022/07/19 01:28:39;;;;;;;15.27;8.13;;;;;;;;;;6235018;23;20024;-77
2022/07/19 01:31:05;;;;;;;14.35;9.13;;;;;;;;;;6232950;23;20067;-79
2022/07/19 01:33:31;;;;;;;17.73;9.27;;;;;;;;;;6207189;23;20051;-78
2022/07/19 01:35:57;;;;;;;14.75;9.43;;;;;;;;;;6231385;23;20016;-80
2022/07/19 01:38:23;;;;;;;17.77;10.35;;;;;;;;;;6234647;23;20016;-80
2022/07/19 01:40:52;;;;;;;14.25;10.20;;;;;;;;;;6230905;23;20016;-79
2022/07/19 01:43:18;;;;;;;20.67;12.25;;;;;;;;;;6234653;23;20024;-79
2022/07/19 01:45:44;;;;;;;15.55;11.38;;;;;;;;;;6233450;23;20055;-79
2022/07/19 01:48:10;;;;;;;25.02;11.20;;;;;;;;;;6233606;23;20389;-79
2022/07/19 01:50:36;;;;;;;18.30;13.00;;;;;;;;;;6232547;23;20016;-79
2022/07/19 01:53:02;;;;;;;17.90;13.50;;;;;;;;;;6184359;23;20026;-79
2022/07/19 01:55:28;;;;;;;16.55;12.68;;;;;;;;;;6234997;23;20091;-79
2022/07/19 01:57:54;;;;;;;18.75;13.23;;;;;;;;;;6235116;23;20464;-79
2022/07/19 02:00:20;;;;;;;21.38;15.15;;;;;;;;;;6234661;23;20023;-79
2022/07/19 02:02:47;;;;;;;24.65;16.23;;;;;;;;;;6233752;23;20074;-80
2022/07/19 02:05:13;;;;;;;23.10;14.70;;;;;;;;;;6207996;23;20020;-79
2022/07/19 02:07:39;;;;;;;39.03;15.48;;;;;;;;;;6205698;23;20186;-79
2022/07/19 02:10:06;;;;;;;26.33;14.65;;;;;;;;;;6235270;23;20024;-79
2022/07/19 02:12:32;;;;;;;18.92;13.65;;;;;;;;;;6233625;23;20506;-79
2022/07/19 02:14:59;;;;;;;29.85;14.82;;;;;;;;;;6207359;23;20349;-79
2022/07/19 02:17:28;;;;;;;16.25;12.80;;;;;;;;;;6184820;23;20122;-79
2022/07/19 02:19:54;;;;;;;17.17;13.07;;;;;;;;;;6233961;23;20020;-79
2022/07/19 02:22:20;;;;;;;23.70;13.40;;;;;;;;;;6232474;23;20020;-80
2022/07/19 02:24:46;;;;;;;20.15;12.45;;;;;;;;;;6234695;23;20098;-81
2022/07/19 02:27:12;;;;;;;21.70;14.68;;;;;;;;;;6181714;23;20020;-78
2022/07/19 02:29:38;;;;;;;21.38;13.30;;;;;;;;;;6235883;23;20024;-78
2022/07/19 02:32:05;;;;;;;17.88;13.77;;;;;;;;;;6206764;23;20356;-78
2022/07/19 02:34:31;;;;;;;34.80;13.70;;;;;;;;;;6208970;23;20082;-79
2022/07/19 02:36:57;;;;;;;18.80;12.43;;;;;;;;;;6206339;23;20431;-80
2022/07/19 02:39:23;;;;;;;28.65;13.05;;;;;;;;;;6233503;23;20411;-80
2022/07/19 02:41:49;;;;;;;22.42;12.57;;;;;;;;;;6233645;23;20126;-79
2022/07/19 02:44:15;;;;;;;29.50;13.77;;;;;;;;;;6235110;23;20031;-79
2022/07/19 02:46:42;;;;;;;34.63;12.75;;;;;;;;;;6234434;23;20095;-79
2022/07/19 02:49:08;;;;;;;25.35;12.57;;;;;;;;;;6211522;23;20020;-80
2022/07/19 02:51:34;;;;;;;27.63;12.10;;;;;;;;;;6234262;23;20020;-82
2022/07/19 02:54:00;;;;;;;22.75;11.02;;;;;;;;;;6235308;23;20021;-81
2022/07/19 02:56:26;;;;;;;28.58;12.73;;;;;;;;;;6233349;23;20055;-80
2022/07/19 02:58:52;;;;;;;29.25;10.85;;;;;;;;;;6230674;23;20918;-82
2022/07/19 03:01:19;;;;;;;31.30;11.10;;;;;;;;;;6234161;23;20016;-81
2022/07/19 03:03:47;;;;;;;31.80;11.50;;;;;;;;;;6234618;23;20474;-81
2022/07/19 03:06:13;;;;;;;22.40;11.27;;;;;;;;;;6234132;23;20052;-81
2022/07/19 03:08:39;;;;;;;36.00;10.07;;;;;;;;;;6234246;23;20016;-80
2022/07/19 03:11:06;;;;;;;22.00;10.25;;;;;;;;;;6231746;23;20069;-80
2022/07/19 03:13:32;;;;;;;23.02;10.48;;;;;;;;;;6233831;23;20326;-80
2022/07/19 03:15:58;;;;;;;16.88;10.25;;;;;;;;;;6234018;23;20028;-79
2022/07/19 03:18:24;;;;;;;23.52;9.75;;;;;;;;;;6235665;23;20054;-79
2022/07/19 03:20:50;;;;;;;20.73;9.60;;;;;;;;;;6233317;23;20389;-80
2022/07/19 03:23:16;;;;;;;28.42;9.68;;;;;;;;;;6235826;23;20020;-80
2022/07/19 03:25:42;;;;;;;27.15;10.15;;;;;;;;;;6233461;23;20012;-80
2022/07/19 03:28:09;;;;;;;32.15;10.48;;;;;;;;;;6233822;23;20086;-80
2022/07/19 03:30:35;;;;;;;25.48;9.40;;;;;;;;;;6206088;23;20022;-80
2022/07/19 03:33:03;;;;;;;20.10;10.20;;;;;;;;;;6234347;23;20453;-80
2022/07/19 03:35:29;;;;;;;19.98;9.50;;;;;;;;;;6207454;23;20146;-80
2022/07/19 03:37:56;;;;;;;32.85;10.23;;;;;;;;;;6182233;23;20016;-80
2022/07/19 03:40:22;;;;;;;23.42;9.82;;;;;;;;;;6234290;23;20059;-81
2022/07/19 03:42:48;;;;;;;19.17;9.50;;;;;;;;;;6234031;23;20023;-81
2022/07/19 03:45:14;;;;;;;35.45;10.70;;;;;;;;;;6232899;23;20055;-79
2022/07/19 03:47:40;;;;;;;22.08;10.43;;;;;;;;;;6233922;23;20016;-80
2022/07/19 03:50:06;;;;;;;21.60;10.95;;;;;;;;;;6232451;23;20406;-80
2022/07/19 03:52:32;;;;;;;21.00;10.27;;;;;;;;;;6233176;23;20368;-80
2022/07/19 03:54:58;;;;;;;28.58;12.13;;;;;;;;;;6233444;23;20023;-79
2022/07/19 03:57:24;;;;;;;20.63;11.95;;;;;;;;;;6233920;23;20028;-80
2022/07/19 03:59:50;;;;;;;18.95;11.32;;;;;;;;;;6232659;23;20062;-80
2022/07/19 04:02:16;;;;;;;25.88;14.32;;;;;;;;;;6182282;23;20166;-80
2022/07/19 04:04:42;;;;;;;24.33;13.23;;;;;;;;;;6229971;23;20145;-80
2022/07/19 04:07:09;;;;;;;27.85;12.98;;;;;;;;;;6234212;23;20023;-80
2022/07/19 04:09:35;;;;;;;27.00;14.52;;;;;;;;;;6230681;23;20059;-79
2022/07/19 04:12:01;;;;;;;36.53;15.75;;;;;;;;;;6233389;23;20020;-79
2022/07/19 04:14:27;;;;;;;21.33;15.05;;;;;;;;;;6205727;23;20051;-79
2022/07/19 04:16:53;;;;;;;33.10;18.80;;;;;;;;;;6233941;23;20082;-79
2022/07/19 04:19:19;;;;;;;26.92;17.25;;;;;;;;;;6181886;23;20016;-79
2022/07/19 04:21:45;;;;;;;30.58;19.27;;;;;;;;;;6204895;23;20043;-80
2022/07/19 04:24:11;;;;;;;30.23;21.50;;;;;;;;;;6231863;23;20027;-79
2022/07/19 04:26:38;;;;;;;25.98;20.45;;;;;;;;;;6205780;23;20016;-80
2022/07/19 04:29:04;;;;;;;21.55;19.08;;;;;;;;;;6232285;23;20020;-79
2022/07/19 04:31:30;;;;;;;34.25;21.98;;;;;;;;;;6232807;23;20348;-80
2022/07/19 04:33:56;;;;;;;26.35;21.35;;;;;;;;;;6205377;23;20023;-80
2022/07/19 04:36:22;;;;;;;32.25;21.45;;;;;;;;;;6232592;23;20566;-80
2022/07/19 04:38:48;;;;;;;30.35;23.30;;;;;;;;;;6230474;23;20895;-79
2022/07/19 04:41:14;;;;;;;28.33;23.77;;;;;;;;;;6206132;23;20441;-79
2022/07/19 04:43:40;;;;;;;37.67;25.20;;;;;;;;;;6231180;23;20042;-80
2022/07/19 04:46:07;;;;;;;33.08;24.42;;;;;;;;;;6205433;23;20024;-80
2022/07/19 04:48:33;;;;;;;34.35;24.08;;;;;;;;;;6232986;23;20052;-79
2022/07/19 04:50:59;;;;;;;36.42;24.02;;;;;;;;;;6233043;23;20016;-79
2022/07/19 04:53:25;;;;;;;34.53;24.25;;;;;;;;;;6233332;23;20059;-79
2022/07/19 04:55:51;;;;;;;30.13;21.75;;;;;;;;;;6234308;23;20472;-79
2022/07/19 04:58:17;;;;;;;38.65;23.35;;;;;;;;;;6232163;23;20527;-79
2022/07/19 05:00:44;;;;;;;43.50;23.67;;;;;;;;;;6232428;23;20540;-80
2022/07/19 05:03:10;;;;;;;43.60;23.27;;;;;;;;;;6234528;23;20102;-79
2022/07/19 05:05:36;;;;;;;36.40;23.75;;;;;;;;;;6232343;23;20025;-80
2022/07/19 05:08:02;;;;;;;43.65;23.58;;;;;;;;;;6206097;23;20047;-80
2022/07/19 05:10:28;;;;;;;34.42;21.98;;;;;;;;;;6231757;23;20016;-80
2022/07/19 05:12:54;;;;;;;38.80;22.63;;;;;;;;;;6231405;23;20439;-80
2022/07/19 05:15:20;;;;;;;33.30;21.90;;;;;;;;;;6202935;23;20353;-79
2022/07/19 05:17:46;;;;;;;32.42;20.05;;;;;;;;;;6204329;23;20024;-79
2022/07/19 05:20:15;;;;;;;35.40;19.83;;;;;;;;;;6202955;23;20016;-80
2022/07/19 05:22:41;;;;;;;34.10;18.27;;;;;;;;;;6176622;23;20020;-79
2022/07/19 05:25:09;;;;;;;28.85;18.05;;;;;;;;;;6204232;23;20437;-80
2022/07/19 05:27:35;;;;;;;22.50;15.95;;;;;;;;;;6206977;23;20568;-80
2022/07/19 05:30:01;;;;;;;26.92;16.05;;;;;;;;;;6205640;23;20044;-79
2022/07/19 05:32:27;;;;;;;22.38;16.52;;;;;;;;;;6179135;23;20414;-78
2022/07/19 05:34:53;;;;;;;23.52;14.38;;;;;;;;;;6205503;23;20094;-79
2022/07/19 05:37:19;;;;;;;18.30;13.68;;;;;;;;;;6206750;23;20024;-78
2022/07/19 05:39:45;;;;;;;17.55;12.82;;;;;;;;;;6204015;23;20020;-79
2022/07/19 05:42:12;;;;;;;23.23;13.93;;;;;;;;;;6177740;23;20024;-79
2022/07/19 05:44:38;;;;;;;16.67;12.60;;;;;;;;;;6205614;23;20471;-79
2022/07/19 05:47:04;;;;;;;18.30;12.40;;;;;;;;;;6206954;23;20017;-79
2022/07/19 05:49:30;;;;;;;18.55;12.45;;;;;;;;;;6206875;23;20059;-80
2022/07/19 05:51:56;;;;;;;18.73;11.95;;;;;;;;;;6211184;23;20087;-80
2022/07/19 05:54:22;;;;;;;13.00;11.18;;;;;;;;;;6210549;23;20547;-79
2022/07/19 05:56:48;;;;;;;13.45;9.98;;;;;;;;;;6210266;23;20020;-80
2022/07/19 05:59:14;;;;;;;17.60;9.75;;;;;;;;;;6210020;23;20016;-77
2022/07/19 06:01:41;;;;;;;11.90;9.20;;;;;;;;;;6209647;23;20016;-78
2022/07/19 06:04:07;;;;;;;12.77;10.73;;;;;;;;;;6209506;23;20021;-79
2022/07/19 06:06:34;;;;;;;12.50;9.82;;;;;;;;;;6183874;23;20029;-79
2022/07/19 06:09:00;;;;;;;10.18;9.07;;;;;;;;;;6183834;23;20047;-78
2022/07/19 06:11:27;;;;;;;12.13;8.95;;;;;;;;;;6212671;23;20091;-78
2022/07/19 06:13:53;;;;;;;13.35;8.68;;;;;;;;;;6174661;23;20051;-78
2022/07/19 06:16:20;;;;;;;13.80;8.60;;;;;;;;;;6217823;23;20031;-80
2022/07/19 06:18:46;;;;;;;16.55;8.30;;;;;;;;;;6241458;23;20047;-78
2022/07/19 06:21:16;;;;;;;14.95;8.38;;;;;;;;;;6241772;23;20467;-78
2022/07/19 06:23:42;;;;;;;13.25;7.85;;;;;;;;;;6240276;23;20030;-78
2022/07/19 06:26:09;;;;;;;9.65;8.13;;;;;;;;;;6237867;23;20077;-78
2022/07/19 06:28:35;;;;;;;10.90;8.00;;;;;;;;;;6242099;23;20097;-78
2022/07/19 06:31:01;;;;;;;10.98;8.25;;;;;;;;;;6235889;23;20361;-77
2022/07/19 06:33:27;;;;;;;9.73;7.60;;;;;;;;;;6237196;23;20027;-78
2022/07/19 06:35:54;;;;;;;9.88;7.97;;;;;;;;;;6237381;23;20027;-80
2022/07/19 06:38:20;;;;;;;10.63;7.63;;;;;;;;;;6241950;23;20104;-80
2022/07/19 06:40:46;;;;;;;10.32;6.97;;;;;;;;;;6213961;23;20068;-79
2022/07/19 06:43:12;;;;;;;13.05;7.03;;;;;;;;;;6214156;23;20463;-77
2022/07/19 06:45:39;;;;;;;10.25;6.80;;;;;;;;;;6213673;23;20020;-80
2022/07/19 06:48:05;;;;;;;10.80;7.30;;;;;;;;;;6241690;23;20325;-79
2022/07/19 06:50:31;;;;;;;15.25;8.10;;;;;;;;;;6215334;23;20024;-80
2022/07/19 06:52:57;;;;;;;19.58;9.25;;;;;;;;;;6210690;23;20023;-79
2022/07/19 06:55:24;;;;;;;17.80;9.13;;;;;;;;;;6239203;23;20399;-79
2022/07/19 06:57:50;;;;;;;14.43;9.50;;;;;;;;;;6189019;23;20020;-80
2022/07/19 07:00:16;;;;;;;15.18;9.50;;;;;;;;;;6212181;23;20403;-79
2022/07/19 07:02:42;;;;;;;25.88;10.95;;;;;;;;;;6241230;23;20042;-79
2022/07/19 07:05:10;;;;;;;18.83;11.52;;;;;;;;;;6212669;23;20020;-79
2022/07/19 07:07:36;;;;;;;21.35;11.98;;;;;;;;;;6238702;23;20095;-80
2022/07/19 07:10:04;;;;;;;14.82;10.73;;;;;;;;;;6238388;23;20024;-80
2022/07/19 07:12:30;;;;;;;18.80;12.52;;;;;;;;;;6240022;23;20687;-79
2022/07/19 07:14:56;;;;;;;24.30;13.32;;;;;;;;;;6211455;23;20020;-80
2022/07/19 07:17:22;;;;;;;12.60;11.30;;;;;;;;;;6239396;23;20082;-79
2022/07/19 07:19:48;;;;;;;14.40;9.05;;;;;;;;;;6211712;23;20085;-80
2022/07/19 07:22:14;;;;;;;20.65;12.30;;;;;;;;;;6239140;23;20020;-79
2022/07/19 07:24:41;;;;;;;16.83;11.23;;;;;;;;;;6240629;23;20047;-79
2022/07/19 07:27:07;;;;;;;16.35;9.90;;;;;;;;;;6212853;23;20016;-78
2022/07/19 07:29:33;;;;;;;20.20;10.18;;;;;;;;;;6241434;23;20123;-80
2022/07/19 07:31:59;;;;;;;15.35;10.07;;;;;;;;;;6239109;23;20012;-79
2022/07/19 07:34:26;;;;;;;14.68;9.95;;;;;;;;;;6163177;23;20016;-79
2022/07/19 07:36:55;;;;;;;15.27;9.32;;;;;;;;;;6212873;23;20028;-78
2022/07/19 07:39:21;;;;;;;13.52;9.73;;;;;;;;;;6215529;23;20341;-79
2022/07/19 07:41:47;;;;;;;16.30;9.82;;;;;;;;;;6243182;23;20012;-79
2022/07/19 07:44:14;;;;;;;14.82;9.05;;;;;;;;;;6242975;23;20024;-79
2022/07/19 07:46:40;;;;;;;11.32;6.28;;;;;;;;;;6217804;23;20016;-79
2022/07/19 07:49:06;;;;;;;13.50;6.68;;;;;;;;;;6242678;23;20012;-79
2022/07/19 07:51:32;;;;;;;9.57;6.35;;;;;;;;;;6244672;23;20052;-79
2022/07/19 07:53:59;;;;;;;13.65;7.15;;;;;;;;;;6243361;23;20023;-79
2022/07/19 07:56:25;;;;;;;18.80;9.20;;;;;;;;;;6244200;23;20419;-80
2022/07/19 07:58:52;;;;;;;14.60;9.48;;;;;;;;;;6189174;23;20024;-79
2022/07/19 08:01:18;;;;;;;18.65;10.50;;;;;;;;;;6244420;23;20016;-79
2022/07/19 08:03:44;;;;;;;12.82;8.73;;;;;;;;;;6244178;23;20020;-80
2022/07/19 08:06:11;;;;;;;12.45;8.30;;;;;;;;;;6243932;23;20016;-79
2022/07/19 08:08:37;;;;;;;12.07;8.00;;;;;;;;;;6243343;23;20065;-80
2022/07/19 08:11:03;;;;;;;11.00;8.13;;;;;;;;;;6242748;23;20028;-78
2022/07/19 08:13:30;;;;;;;8.95;7.53;;;;;;;;;;6215471;23;20020;-79
2022/07/19 08:15:56;;;;;;;14.75;8.02;;;;;;;;;;6242589;23;20020;-78
2022/07/19 08:18:22;;;;;;;9.00;6.50;;;;;;;;;;6243253;23;20111;-79
2022/07/19 08:20:48;;;;;;;12.35;6.50;;;;;;;;;;6240887;23;20016;-79
2022/07/19 08:23:14;;;;;;;12.32;6.53;;;;;;;;;;6213130;23;20755;-80
2022/07/19 08:25:40;;;;;;;8.40;6.15;;;;;;;;;;6213133;23;20020;-80
2022/07/19 08:28:07;;;;;;;13.52;6.60;;;;;;;;;;6239665;23;20020;-77
2022/07/19 08:30:33;;;;;;;7.43;5.80;;;;;;;;;;6213633;23;20420;-78
2022/07/19 08:33:00;;;;;;;7.97;5.43;;;;;;;;;;6240976;23;20086;-78
2022/07/19 08:35:27;;;;;;;8.05;4.68;;;;;;;;;;6242908;23;20094;-80
2022/07/19 08:37:53;;;;;;;5.38;4.50;;;;;;;;;;6212752;23;20039;-79
2022/07/19 08:40:19;;;;;;;7.93;5.97;;;;;;;;;;6240958;23;20075;-79
2022/07/19 08:42:46;;;;;;;8.52;4.88;;;;;;;;;;6241060;23;20024;-79
2022/07/19 08:45:12;;;;;;;6.85;4.35;;;;;;;;;;6214818;23;20020;-80
2022/07/19 08:47:39;;;;;;;6.25;3.72;;;;;;;;;;6216352;23;20020;-79
2022/07/19 08:50:06;;;;;;;10.55;5.43;;;;;;;;;;6241716;23;20024;-80
2022/07/19 08:52:34;;;;;;;13.65;4.35;;;;;;;;;;6214728;23;20020;-79
2022/07/19 08:55:00;;;;;;;10.38;6.55;;;;;;;;;;6211168;23;20522;-78
2022/07/19 09:00:13;;;;;;;8.82;5.60;;;;;;;;;;6239154;23;20024;-79
2022/07/19 09:02:39;;;;;;;10.77;5.63;;;;;;;;;;6241564;23;20082;-80
2022/07/19 09:05:07;;;;;;;8.80;5.05;;;;;;;;;;6214096;23;20020;-79
2022/07/19 09:07:33;;;;;;;8.23;4.82;;;;;;;;;;6241264;23;20775;-79
2022/07/19 09:10:19;;;;;;;7.95;5.43;;;;;;;;;;6241231;23;20031;-79
2022/07/19 09:12:58;;;;;;;13.77;6.20;;;;;;;;;;6212154;23;20023;-79
2022/07/19 09:15:52;;;;;;;15.25;5.45;;;;;;;;;;6214441;23;20348;-79
2022/07/19 09:18:31;;;;;;;9.13;2.80;;;;;;;;;;6239589;23;20020;-79
2022/07/19 09:20:57;;;;;;;5.70;2.40;;;;;;;;;;6238855;23;20020;-79
2022/07/19 09:23:23;;;;;;;7.65;2.75;;;;;;;;;;6239166;23;20023;-79
2022/07/19 09:25:51;;;;;;;4.63;2.50;;;;;;;;;;6236975;23;20374;-79
2022/07/19 09:28:17;;;;;;;4.07;2.60;;;;;;;;;;6211227;23;20504;-79
2022/07/19 09:30:45;;;;;;;5.78;2.35;;;;;;;;;;6210744;23;20479;-79
2022/07/19 09:33:15;;;;;;;13.20;2.50;;;;;;;;;;6239252;23;20022;-79
2022/07/19 09:35:46;;;;;;;4.53;2.72;;;;;;;;;;6210743;23;20028;-79
2022/07/19 09:38:19;;;;;;;3.10;2.30;;;;;;;;;;6239049;23;20020;-78
2022/07/19 09:40:45;;;;;;;4.47;2.50;;;;;;;;;;6239016;23;20024;-79
2022/07/19 09:43:11;;;;;;;3.67;2.42;;;;;;;;;;6212661;23;20023;-79
2022/07/19 09:45:37;;;;;;;7.43;2.40;;;;;;;;;;6239589;23;20020;-79
2022/07/19 09:48:03;;;;;;;8.48;2.28;;;;;;;;;;6235986;23;20016;-79
2022/07/19 09:50:30;;;;;;;5.82;2.38;;;;;;;;;;6237437;23;20051;-79
2022/07/19 09:53:03;;;;;;;4.88;2.17;;;;;;;;;;6236151;23;20043;-80
2022/07/19 09:55:29;;;;;;;8.93;2.40;;;;;;;;;;6234777;23;20023;-80
2022/07/19 09:57:57;;;;;;;6.85;2.70;;;;;;;;;;6209063;23;20683;-79
2022/07/19 10:00:24;;;;;;;4.90;2.00;;;;;;;;;;6234325;23;20020;-79
2022/07/19 10:03:00;;;;;;;6.50;2.30;;;;;;;;;;6236127;23;20070;-80
2022/07/19 10:05:27;;;;;;;6.75;2.60;;;;;;;;;;6234444;23;20070;-79
2022/07/19 10:07:54;;;;;;;3.92;2.58;;;;;;;;;;6234448;23;20020;-79
2022/07/19 10:10:22;;;;;;;6.55;2.80;;;;;;;;;;6233615;23;20086;-79
2022/07/19 10:12:48;;;;;;;6.50;2.40;;;;;;;;;;6233106;23;20081;-79
2022/07/19 10:15:16;;;;;;;5.18;2.20;;;;;;;;;;6234805;23;20061;-79
2022/07/19 10:17:48;;;;;;;10.05;2.42;;;;;;;;;;6234828;23;20074;-79
2022/07/19 10:20:19;;;;;;;5.53;2.25;;;;;;;;;;6233660;23;20017;-80
2022/07/19 10:22:49;;;;;;;8.48;2.30;;;;;;;;;;6232787;23;20352;-79
2022/07/19 10:25:17;;;;;;;3.83;2.25;;;;;;;;;;6232205;23;20452;-79
2022/07/19 10:27:44;;;;;;;6.82;2.50;;;;;;;;;;6233625;23;20016;-79
2022/07/19 10:30:10;;;;;;;7.50;1.95;;;;;;;;;;6234931;23;20082;-80
2022/07/19 10:32:37;;;;;;;5.95;2.25;;;;;;;;;;6232259;23;20820;-80
2022/07/19 10:35:19;;;;;;;7.82;2.30;;;;;;;;;;6207666;23;20012;-79
2022/07/19 10:37:46;;;;;;;4.32;2.33;;;;;;;;;;6234326;23;20051;-79
2022/07/19 10:40:12;;;;;;;8.88;2.67;;;;;;;;;;6233536;23;20055;-79
2022/07/19 10:42:58;;;;;;;4.72;2.40;;;;;;;;;;6235070;23;20059;-79
2022/07/19 10:45:24;;;;;;;4.03;2.15;;;;;;;;;;6184169;23;20111;-80
2022/07/19 10:47:50;;;;;;;7.13;2.20;;;;;;;;;;6236454;23;20013;-79
2022/07/19 10:50:21;;;;;;;6.07;2.40;;;;;;;;;;6236121;23;20023;-80
2022/07/19 10:52:47;;;;;;;6.78;2.45;;;;;;;;;;6237895;23;20093;-80
2022/07/19 10:55:17;;;;;;;5.25;2.20;;;;;;;;;;6209378;23;20024;-78
2022/07/19 10:58:03;;;;;;;4.38;2.13;;;;;;;;;;6235089;23;20025;-79
2022/07/19 11:00:30;;;;;;;4.57;2.28;;;;;;;;;;6208125;23;20479;-78
2022/07/19 11:03:25;;;;;;;3.22;2.03;;;33.30;99.90;;;;;;6237694;23;20031;-79
2022/07/19 11:05:58;;;;;;;3.42;2.47;;;;;;;;;;6236667;23;20086;-79
2022/07/19 11:08:33;;;;;;;7.38;2.42;;;;;;;;;;6237216;23;20020;-79
2022/07/19 11:11:09;;;;;;;7.25;2.40;;;;;;;;;;6237326;23;20023;-80
2022/07/19 11:13:36;;;;;;;4.85;2.47;;;;;;;;;;6228338;23;20071;-79
2022/07/19 11:16:07;;;;;;;3.35;2.35;;;;;;;;;;6207509;23;20021;-81
2022/07/19 11:18:34;;;;;;;10.98;2.80;;;;;;;;;;6208810;23;20515;-80
2022/07/19 11:21:05;;;;;;;6.78;2.40;;;;;;;;;;6208342;23;20365;-79
2022/07/19 11:23:31;;;;;;;9.77;2.33;;;;;;;;;;6205903;23;20142;-79
2022/07/19 11:26:17;;;;;;;5.15;2.25;;;;;;;;;;6156236;23;20715;-79
2022/07/19 11:28:44;;;;;;;6.60;2.30;;;;;;;;;;6207322;23;20082;-79
2022/07/19 11:31:11;;;;;;;8.50;2.40;;;;;;;;;;6208794;23;20384;-80
2022/07/19 11:33:37;;;;;;;5.95;2.10;;;;;;;;;;6207193;23;20013;-80
2022/07/19 11:36:04;;;;;;;3.10;2.25;;;;;;;;;;6182011;23;20028;-80
2022/07/19 11:38:40;;;;;;;5.82;2.15;;;;;;;;;;6180555;23;20381;-80
2022/07/19 11:41:25;;;;;;;4.38;2.03;;;;;;;;;;6208236;23;20024;-80
2022/07/19 11:43:55;;;;;;;5.45;2.10;;;;;;;;;;6209374;23;21061;-80
2022/07/19 11:46:37;;;;;;;6.07;2.00;;;;;;;;;;6207653;23;20016;-79
2022/07/19 11:49:04;;;;;;;11.55;2.33;;;;;;;;;;6209326;23;20020;-81
2022/07/19 11:51:30;;;;;;;7.60;2.28;;;;;;;;;;6207133;23;20388;-80
2022/07/19 11:53:58;;;;;;;8.00;2.28;;;;;;;;;;6208912;23;20017;-81
2022/07/19 11:56:32;;;;;;;4.47;2.17;;;;;;;;;;6179205;23;20032;-80
2022/07/19 11:59:05;;;;;;;7.40;2.08;;;;;;;;;;6208205;23;20526;-81
2022/07/19 12:01:33;;;;;;;3.85;1.70;;;;;;;;;;6181755;23;20445;-79
2022/07/19 12:04:05;;;;;;;4.25;2.33;;;;;;;;;;6208000;23;20024;-80
2022/07/19 12:06:36;;;;;;;5.70;2.00;;;;;;;;;;6207654;23;20103;-82
2022/07/19 12:09:10;;;;;;;5.80;2.30;;;;;;;;;;6207350;23;20028;-80
2022/07/19 12:12:04;;;;;;;2.13;1.90;;;;;;;;;;6208522;23;20017;-80
2022/07/19 12:14:35;;;;;;;3.42;1.83;;;;;;;;;;6225846;23;20370;-80
2022/07/19 12:17:10;;;;;;;3.45;1.83;;;;;;;;;;6238176;23;20024;-80
2022/07/19 12:19:39;;;;;;;3.85;1.80;;;;;;;;;;6238145;23;20015;-79
2022/07/19 12:22:06;;;;;;;6.40;2.03;;;;;;;;;;6210753;23;20111;-80
2022/07/19 12:24:32;;;;;;;5.25;1.83;;;;;;;;;;6267767;22;20102;-80
2022/07/19 12:27:27;;;;;;;3.20;1.70;;;;;;;;;;6268006;22;20090;-79
2022/07/19 12:29:47;;;;;;;2.80;1.80;;;;;;;;;;6266389;22;20475;-79
2022/07/19 12:32:29;;;;;;;3.78;1.90;;;;;;;;;;6239977;22;20394;-79
2022/07/19 12:35:01;;;;;;;4.72;1.70;;;;;;;;;;6267628;22;20471;-80
2022/07/19 12:37:28;;;;;;;4.83;1.60;;;;;;;;;;6268225;22;20034;-79
2022/07/19 12:40:16;;;;;;;7.30;1.52;;;;;;;;;;6266817;22;20026;-80
2022/07/19 12:42:42;;;;;;;2.17;1.73;;;;;;;;;;6241038;22;20097;-81
2022/07/19 12:45:10;;;;;;;3.70;1.60;;;;;;;;;;6240009;22;20020;-80
2022/07/19 12:47:37;;;;;;;4.38;1.70;;;;;;;;;;6272773;22;20447;-79
2022/07/19 12:50:03;;;;;;;5.43;2.05;;;;;;;;;;6271229;22;20016;-80
2022/07/19 12:52:36;;;;;;;10.43;2.55;;;;;;;;;;6271054;22;20098;-79
2022/07/19 12:55:02;;;;;;;4.65;1.77;;;;;;;;;;6271566;22;20020;-80
2022/07/19 12:57:29;;;;;;;11.48;2.15;;;;;;;;;;6271987;22;20016;-81
2022/07/19 13:00:01;;;;;;;3.10;1.70;;;;;;;;;;6271300;22;20072;-81
2022/07/19 13:02:27;;;;;;;3.33;1.90;;;;;;;;;;6243231;22;20099;-80
2022/07/19 13:04:53;;;;;;;5.28;1.70;;;;;;;;;;6244039;22;20023;-80
2022/07/19 13:07:19;;;;;;;2.80;1.73;;;;;;;;;;6272245;22;20070;-79
2022/07/19 13:09:49;;;;;;;5.18;1.63;;;;;;;;;;6273035;22;20039;-80
2022/07/19 13:12:22;;;;;;;3.53;1.73;;;;;;;;;;6273125;22;20027;-80
2022/07/19 13:14:49;;;;;;;10.00;1.80;;;;;;;;;;6242040;22;20019;-80
2022/07/19 13:17:15;;;;;;;7.45;1.83;;;;;;;;;;6270321;22;20024;-81
2022/07/19 13:19:41;;;;;;;7.45;1.52;;;;;;;;;;6245614;22;20511;-80
2022/07/19 13:22:10;;;;;;;6.50;1.70;;;;;;;;;;6271106;22;20149;-80
2022/07/19 13:24:37;;;;;;;11.65;1.90;;;;;;;;;;6271482;22;20045;-81
2022/07/19 13:27:06;;;;;;;2.58;1.60;;;;;;;;;;6272247;22;20306;-79
2022/07/19 13:29:32;;;;;;;8.43;1.65;;;;;;;;;;6244468;22;20130;-80
2022/07/19 13:31:58;;;;;;;5.45;1.67;;;;;;;;;;6244047;22;20098;-80
2022/07/19 13:34:31;;;;;;;2.42;1.60;;;;;;;;;;6244505;22;20103;-79
2022/07/19 13:36:57;;;;;;;8.48;1.90;;;;;;;;;;6272592;22;20016;-80
2022/07/19 13:39:23;;;;;;;5.32;1.70;;;;;;;;;;6270088;22;20055;-80
2022/07/19 13:41:50;;;;;;;6.18;1.65;;;;;;;;;;6220058;22;20022;-79
2022/07/19 13:44:16;;;;;;;4.18;1.40;;;;;;;;;;6270237;22;20023;-80
2022/07/19 13:46:45;;;;;;;6.72;1.70;;;;;;;;;;6270929;22;20095;-81
2022/07/19 13:49:11;;;;;;;12.82;2.30;;;;;;;;;;6246390;22;20015;-80
2022/07/19 13:51:39;;;;;;;8.65;2.03;;;;;;;;;;6221807;22;20086;-79
2022/07/19 13:54:05;;;;;;;7.80;1.75;;;;;;;;;;6274633;22;20043;-80
2022/07/19 13:56:31;;;;;;;3.15;1.80;;;;;;;;;;6272714;22;20471;-80
2022/07/19 13:58:57;;;;;;;12.45;1.92;;;;;;;;;;6246733;22;20015;-80
2022/07/19 14:01:23;;;;;;;4.13;1.40;;;;;;;;;;6272761;22;20046;-80
2022/07/19 14:03:49;;;;;;;5.03;1.75;;;;;;;;;;6273626;22;20455;-81
2022/07/19 14:06:16;;;;;;;6.45;1.80;;;;;;;;;;6272039;22;20091;-81
2022/07/19 14:08:42;;;;;;;7.20;1.60;;;;;;;;;;6273953;22;20016;-79
2022/07/19 14:11:08;;;;;;;2.03;1.70;;;;;;;;;;6244789;22;20016;-80
2022/07/19 14:13:34;;;;;;;4.18;1.80;;;;;;;;;;6272088;22;20103;-80
2022/07/19 14:16:01;;;;;;;4.15;1.60;;;;;;;;;;6246852;22;20031;-81
2022/07/19 14:18:28;;;;;;;5.60;1.67;;;;;;;;;;6271356;22;20024;-79
2022/07/19 14:20:54;;;;;;;3.45;1.95;;;;;;;;;;6272734;22;20073;-80
2022/07/19 14:23:21;;;;;;;4.45;1.50;;;;;;;;;;6273563;22;20011;-81
2022/07/19 14:25:47;;;;;;;5.22;1.70;;;;;;;;;;6273898;22;20011;-81
2022/07/19 14:28:22;;;;;;;6.45;1.80;;;;;;;;;;6273166;22;20024;-81
2022/07/19 14:30:48;;;;;;;4.45;1.80;;;;;;;;;;6273981;22;20063;-81
2022/07/19 14:33:14;;;;;;;2.05;1.40;;;;;;;;;;6220279;22;20027;-80
2022/07/19 14:35:40;;;;;;;4.57;1.58;;;;;;;;;;6271579;22;20412;-79